createdAt,value
2018-01-05T00:01:59.671Z,0.70
2018-01-05T00:04:28.021Z,0.63
2018-01-05T00:06:56.344Z,1.37
2018-01-05T00:09:24.654Z,1.00
2018-01-05T00:11:52.956Z,1.30
2018-01-05T00:14:21.243Z,0.83
2018-01-05T00:16:49.590Z,1.27
2018-01-05T00:19:17.889Z,0.90
2018-01-05T00:21:46.375Z,1.03
2018-01-05T00:24:14.692Z,0.63
2018-01-05T00:26:42.996Z,0.57
2018-01-05T00:29:11.334Z,1.47
2018-01-05T00:31:39.639Z,1.20
2018-01-05T00:34:07.955Z,1.00
2018-01-05T00:36:36.287Z,1.10
2018-01-05T00:39:04.592Z,1.00
2018-01-05T00:41:32.921Z,1.00
2018-01-05T00:44:01.208Z,1.00
2018-01-05T00:46:29.536Z,0.90
2018-01-05T00:48:57.860Z,0.87
2018-01-05T00:51:26.176Z,0.93
2018-01-05T00:53:54.484Z,1.00
2018-01-05T00:56:22.797Z,1.27
2018-01-05T00:58:51.908Z,0.80
2018-01-05T01:01:20.215Z,0.90
2018-01-05T01:03:48.508Z,0.77
2018-01-05T01:06:16.831Z,0.87
2018-01-05T01:08:45.142Z,1.10
2018-01-05T01:11:13.462Z,3.20
2018-01-05T01:13:41.775Z,1.60
2018-01-05T01:16:10.080Z,1.43
2018-01-05T01:18:38.392Z,1.80
2018-01-05T01:21:06.715Z,1.60
2018-01-05T01:23:35.045Z,3.17
2018-01-05T01:26:03.356Z,1.53
2018-01-05T01:28:31.891Z,1.03
2018-01-05T01:31:00.748Z,0.97
2018-01-05T01:33:29.067Z,1.00
2018-01-05T01:35:57.388Z,0.83
2018-01-05T01:38:25.743Z,0.97
2018-01-05T01:40:54.052Z,2.03
2018-01-05T01:43:22.389Z,1.10
2018-01-05T01:45:50.694Z,1.00
2018-01-05T01:48:19.016Z,1.20
2018-01-05T01:50:47.319Z,1.03
2018-01-05T01:53:16.603Z,0.80
2018-01-05T01:55:44.908Z,0.80
2018-01-05T01:58:13.223Z,1.30
2018-01-05T02:00:41.532Z,1.20
2018-01-05T02:03:09.836Z,1.30
2018-01-05T02:05:38.157Z,1.23
2018-01-05T02:08:06.491Z,1.10
2018-01-05T02:10:34.809Z,0.83
2018-01-05T02:13:03.119Z,0.93
2018-01-05T02:15:31.420Z,0.90
2018-01-05T02:17:59.725Z,1.17
2018-01-05T02:20:28.018Z,1.27
2018-01-05T02:22:56.333Z,1.00
2018-01-05T02:25:24.640Z,1.10
2018-01-05T02:27:52.969Z,1.30
2018-01-05T02:30:21.284Z,1.40
2018-01-05T02:32:49.591Z,1.77
2018-01-05T02:35:17.912Z,0.90
2018-01-05T02:37:46.222Z,0.63
2018-01-05T02:40:14.539Z,0.90
2018-01-05T02:42:42.843Z,1.47
2018-01-05T02:45:11.173Z,1.10
2018-01-05T02:47:39.488Z,0.80
2018-01-05T02:50:07.799Z,0.80
2018-01-05T02:52:36.114Z,0.67
2018-01-05T02:55:04.420Z,1.30
2018-01-05T02:57:32.751Z,0.83
2018-01-05T03:00:01.053Z,1.13
2018-01-05T03:02:29.359Z,1.07
2018-01-05T03:04:57.660Z,1.10
2018-01-05T03:07:25.988Z,1.30
2018-01-05T03:09:54.301Z,1.10
2018-01-05T03:12:22.606Z,1.77
2018-01-05T03:14:50.907Z,0.90
2018-01-05T03:17:19.221Z,1.07
2018-01-05T03:19:47.533Z,0.77
2018-01-05T03:22:15.839Z,1.00
2018-01-05T03:24:44.154Z,0.90
2018-01-05T03:27:12.452Z,0.80
2018-01-05T03:29:40.773Z,0.97
2018-01-05T03:32:09.094Z,0.90
2018-01-05T03:34:37.398Z,1.07
2018-01-05T03:37:05.720Z,0.87
2018-01-05T03:39:34.046Z,1.63
2018-01-05T03:42:02.341Z,0.70
2018-01-05T03:44:30.636Z,1.17
2018-01-05T03:46:58.954Z,1.03
2018-01-05T03:49:27.275Z,1.20
2018-01-05T03:51:55.555Z,0.83
2018-01-05T03:54:23.867Z,1.10
2018-01-05T03:56:52.182Z,1.10
2018-01-05T03:59:20.483Z,1.03
2018-01-05T04:01:48.783Z,1.20
2018-01-05T04:04:17.102Z,1.00
2018-01-05T04:06:45.408Z,0.80
2018-01-05T04:09:14.580Z,0.73
2018-01-05T04:11:42.887Z,0.97
2018-01-05T04:14:11.183Z,0.90
2018-01-05T04:16:39.496Z,0.90
2018-01-05T04:19:07.804Z,0.90
2018-01-05T04:21:36.111Z,0.70
2018-01-05T04:24:04.424Z,1.03
2018-01-05T04:26:32.733Z,0.87
2018-01-05T04:29:01.057Z,1.00
2018-01-05T04:31:29.359Z,0.70
2018-01-05T04:33:57.680Z,1.00
2018-01-05T04:36:25.980Z,0.90
2018-01-05T04:38:54.361Z,0.90
2018-01-05T04:41:22.675Z,1.10
2018-01-05T04:43:50.972Z,1.20
2018-01-05T04:46:19.286Z,0.90
2018-01-05T04:48:47.579Z,0.80
2018-01-05T04:51:15.907Z,0.67
2018-01-05T04:53:44.231Z,1.00
2018-01-05T04:56:12.531Z,0.80
2018-01-05T04:58:40.858Z,1.00
2018-01-05T05:01:09.160Z,0.60
2018-01-05T05:03:37.495Z,0.70
2018-01-05T05:06:05.789Z,0.87
2018-01-05T05:08:34.103Z,0.73
2018-01-05T05:11:02.415Z,0.90
2018-01-05T05:13:30.715Z,0.80
2018-01-05T05:15:59.040Z,0.87
2018-01-05T05:18:27.360Z,1.20
2018-01-05T05:20:55.678Z,0.97
2018-01-05T05:23:23.971Z,0.70
2018-01-05T05:25:52.303Z,0.80
2018-01-05T05:28:20.683Z,0.87
2018-01-05T05:30:48.962Z,0.93
2018-01-05T05:33:17.269Z,0.87
2018-01-05T05:35:46.072Z,0.73
2018-01-05T05:38:14.370Z,1.23
2018-01-05T05:40:42.675Z,0.70
2018-01-05T05:43:10.992Z,0.90
2018-01-05T05:45:39.345Z,0.90
2018-01-05T05:48:07.663Z,0.80
2018-01-05T05:50:35.999Z,1.23
2018-01-05T05:53:04.574Z,0.70
2018-01-05T05:55:32.890Z,1.00
2018-01-05T05:58:01.213Z,0.90
2018-01-05T06:00:29.550Z,0.90
2018-01-05T06:02:57.848Z,0.83
2018-01-05T06:05:26.173Z,0.63
2018-01-05T06:07:54.477Z,0.80
2018-01-05T06:10:22.788Z,0.83
2018-01-05T06:12:51.099Z,0.80
2018-01-05T06:15:19.404Z,0.93
2018-01-05T06:17:47.716Z,1.00
2018-01-05T06:20:17.028Z,1.00
2018-01-05T06:22:45.363Z,0.80
2018-01-05T06:25:13.706Z,0.90
2018-01-05T06:27:42.032Z,1.13
2018-01-05T06:30:10.349Z,1.00
2018-01-05T06:32:39.275Z,2.10
2018-01-05T06:35:07.592Z,0.83
2018-01-05T06:37:35.916Z,0.80
2018-01-05T06:40:04.241Z,1.10
2018-01-05T06:42:32.576Z,1.00
2018-01-05T06:45:00.894Z,1.03
2018-01-05T06:47:29.224Z,1.00
2018-01-05T06:49:57.541Z,1.17
2018-01-05T06:52:26.591Z,1.17
2018-01-05T06:54:54.972Z,1.17
2018-01-05T06:57:23.303Z,1.23
2018-01-05T06:59:51.680Z,1.30
2018-01-05T07:02:20.057Z,1.40
2018-01-05T07:04:48.451Z,1.67
2018-01-05T07:07:16.851Z,1.10
2018-01-05T07:09:45.158Z,1.40
2018-01-05T07:12:13.528Z,1.77
2018-01-05T07:14:41.989Z,0.80
2018-01-05T07:17:10.379Z,0.70
2018-01-05T07:19:38.751Z,0.90
2018-01-05T07:22:07.065Z,1.10
2018-01-05T07:24:35.380Z,1.03
2018-01-05T07:27:03.716Z,1.77
2018-01-05T07:29:32.036Z,1.10
2018-01-05T07:32:00.386Z,1.40
2018-01-05T07:34:28.706Z,1.00
2018-01-05T07:36:57.006Z,1.60
2018-01-05T07:39:26.677Z,1.23
2018-01-05T07:41:56.367Z,1.43
2018-01-05T07:44:24.680Z,1.70
2018-01-05T07:46:53.036Z,1.57
2018-01-05T07:49:21.336Z,1.70
2018-01-05T07:51:49.650Z,1.27
2018-01-05T07:54:18.014Z,1.10
2018-01-05T07:56:46.355Z,0.90
2018-01-05T07:59:14.672Z,0.80
2018-01-05T08:01:42.971Z,0.90
2018-01-05T08:04:12.246Z,0.97
2018-01-05T08:06:40.569Z,0.80
2018-01-05T08:09:08.893Z,0.80
2018-01-05T08:11:37.207Z,0.80
2018-01-05T08:14:05.523Z,1.00
2018-01-05T08:16:33.838Z,0.87
2018-01-05T08:19:03.158Z,0.80
2018-01-05T08:21:31.520Z,1.00
2018-01-05T08:23:59.821Z,0.70
2018-01-05T08:26:28.173Z,0.73
2018-01-05T08:28:56.503Z,0.90
2018-01-05T08:31:24.912Z,1.07
2018-01-05T08:33:53.187Z,0.70
2018-01-05T08:36:21.532Z,0.80
2018-01-05T08:38:49.856Z,1.07
2018-01-05T08:41:18.165Z,0.90
2018-01-05T08:43:46.483Z,0.80
2018-01-05T08:46:14.851Z,0.60
2018-01-05T08:48:43.196Z,0.60
2018-01-05T08:51:11.532Z,0.80
2018-01-05T08:53:39.852Z,0.67
2018-01-05T08:56:08.197Z,0.77
2018-01-05T08:58:36.497Z,0.90
2018-01-05T09:01:04.823Z,0.80
2018-01-05T09:03:33.124Z,1.03
2018-01-05T09:06:01.487Z,1.00
2018-01-05T09:08:29.787Z,0.87
2018-01-05T09:10:58.129Z,0.90
2018-01-05T09:13:26.467Z,1.30
2018-01-05T09:15:54.759Z,0.70
2018-01-05T09:18:23.075Z,0.70
2018-01-05T09:20:51.391Z,0.60
2018-01-05T09:23:19.724Z,0.73
2018-01-05T09:25:48.047Z,0.80
2018-01-05T09:28:16.432Z,0.60
2018-01-05T09:30:44.751Z,0.73
2018-01-05T09:33:13.077Z,0.73
2018-01-05T09:35:41.406Z,0.90
2018-01-05T09:38:09.749Z,0.90
2018-01-05T09:40:38.066Z,0.73
2018-01-05T09:43:06.438Z,0.50
2018-01-05T09:45:34.720Z,0.73
2018-01-05T09:48:03.031Z,0.63
2018-01-05T09:50:31.329Z,0.60
2018-01-05T09:53:00.032Z,0.90
2018-01-05T09:55:28.415Z,1.07
2018-01-05T09:57:56.734Z,0.93
2018-01-05T10:00:25.168Z,0.73
2018-01-05T10:02:53.474Z,0.53
2018-01-05T10:05:21.923Z,1.17
2018-01-05T10:07:50.284Z,1.37
2018-01-05T10:10:18.662Z,0.50
2018-01-05T10:12:46.956Z,0.70
2018-01-05T10:15:15.323Z,1.10
2018-01-05T10:17:43.652Z,1.37
2018-01-05T10:20:12.010Z,0.70
2018-01-05T10:22:40.333Z,0.87
2018-01-05T10:25:08.655Z,1.20
2018-01-05T10:27:41.045Z,0.70
2018-01-05T10:30:09.377Z,0.90
2018-01-05T10:32:37.758Z,1.03
2018-01-05T10:35:08.545Z,0.90
2018-01-05T10:37:37.267Z,1.40
2018-01-05T10:40:05.593Z,1.70
2018-01-05T10:42:33.989Z,1.60
2018-01-05T10:45:02.264Z,0.77
2018-01-05T10:47:30.585Z,0.80
2018-01-05T10:49:58.902Z,0.83
2018-01-05T10:52:31.276Z,0.80
2018-01-05T10:54:59.873Z,0.70
2018-01-05T10:57:28.363Z,0.70
2018-01-05T10:59:57.240Z,0.90
2018-01-05T11:02:25.648Z,0.97
2018-01-05T11:04:54.319Z,0.67
2018-01-05T11:07:22.679Z,0.60
2018-01-05T11:09:52.975Z,0.80
2018-01-05T11:12:26.648Z,0.87
2018-01-05T11:14:55.975Z,0.50
2018-01-05T11:17:24.539Z,0.90
2018-01-05T11:19:54.106Z,0.80
2018-01-05T11:22:22.466Z,0.60
2018-01-05T11:24:52.046Z,0.60
2018-01-05T11:27:20.364Z,0.80
2018-01-05T11:29:48.708Z,0.90
2018-01-05T11:32:17.761Z,0.83
2018-01-05T11:34:46.156Z,1.27
2018-01-05T11:37:14.540Z,0.80
2018-01-05T11:39:43.450Z,1.30
2018-01-05T11:42:35.384Z,0.80
2018-01-05T11:45:03.945Z,1.00
2018-01-05T11:47:32.334Z,1.10
2018-01-05T11:50:00.673Z,0.70
2018-01-05T11:52:29.023Z,1.20
2018-01-05T11:54:58.123Z,0.83
2018-01-05T11:57:27.534Z,0.70
2018-01-05T12:00:00.460Z,1.03
2018-01-05T12:02:32.582Z,1.30
2018-01-05T12:05:05.868Z,1.00
2018-01-05T12:07:34.905Z,0.80
2018-01-05T12:10:05.647Z,0.87
2018-01-05T12:12:34.166Z,0.80
2018-01-05T12:15:03.739Z,0.77
2018-01-05T12:17:36.483Z,0.70
2018-01-05T12:20:04.880Z,0.90
2018-01-05T12:22:34.054Z,1.10
2018-01-05T12:25:04.963Z,0.70
2018-01-05T12:27:33.458Z,0.97
2018-01-05T12:30:03.053Z,1.00
2018-01-05T12:32:32.803Z,1.00
2018-01-05T12:35:01.576Z,1.13
2018-01-05T12:37:29.892Z,0.60
2018-01-05T12:40:00.721Z,0.70
2018-01-05T12:42:29.132Z,0.73
2018-01-05T12:44:57.504Z,0.60
2018-01-05T12:47:25.925Z,0.70
2018-01-05T12:49:54.238Z,0.90
2018-01-05T12:52:22.713Z,0.90
2018-01-05T12:54:57.311Z,0.50
2018-01-05T12:57:25.625Z,0.70
2018-01-05T12:59:55.974Z,1.10
2018-01-05T13:05:01.713Z,1.73
2018-01-05T13:07:31.688Z,1.13
2018-01-05T13:10:00.577Z,0.97
2018-01-05T13:12:28.986Z,0.88
2018-01-05T13:15:01.854Z,1.10
2018-01-05T13:17:30.148Z,0.87
2018-01-05T13:19:58.488Z,1.07
2018-01-05T13:22:26.798Z,0.90
2018-01-05T13:24:55.103Z,1.00
2018-01-05T13:27:23.428Z,0.77
2018-01-05T13:29:51.740Z,1.27
2018-01-05T13:32:20.064Z,1.03
2018-01-05T13:34:48.379Z,0.80
2018-01-05T13:37:16.700Z,0.80
2018-01-05T13:39:45.004Z,0.80
2018-01-05T13:42:13.352Z,1.10
2018-01-05T13:44:41.745Z,1.30
2018-01-05T13:47:11.124Z,0.80
2018-01-05T13:49:39.479Z,1.00
2018-01-05T13:52:07.796Z,0.90
2018-01-05T13:54:36.126Z,0.80
2018-01-05T13:57:04.492Z,0.80
2018-01-05T13:59:32.892Z,0.80
2018-01-05T14:02:01.220Z,0.90
2018-01-05T14:04:29.664Z,0.77
2018-01-05T14:06:58.565Z,0.90
2018-01-05T14:09:26.906Z,0.93
2018-01-05T14:11:55.220Z,0.93
2018-01-05T14:14:23.577Z,0.87
2018-01-05T14:16:51.887Z,1.10
2018-01-05T14:19:20.214Z,2.07
2018-01-05T14:21:48.524Z,1.90
2018-01-05T14:24:16.840Z,1.40
2018-01-05T14:26:45.164Z,0.90
2018-01-05T14:29:13.478Z,0.90
2018-01-05T14:31:41.804Z,1.30
2018-01-05T14:34:10.166Z,0.90
2018-01-05T14:36:38.491Z,1.00
2018-01-05T14:39:06.815Z,1.30
2018-01-05T14:41:35.154Z,1.77
2018-01-05T14:44:03.489Z,2.20
2018-01-05T14:46:31.803Z,1.40
2018-01-05T14:49:00.133Z,1.97
2018-01-05T14:51:28.585Z,1.40
2018-01-05T14:53:56.902Z,1.20
2018-01-05T14:56:25.231Z,1.87
2018-01-05T14:58:53.555Z,1.40
2018-01-05T15:01:21.873Z,1.47
2018-01-05T15:03:50.178Z,1.03
2018-01-05T15:06:18.548Z,0.93
2018-01-05T15:08:46.866Z,1.03
2018-01-05T15:11:15.195Z,1.20
2018-01-05T15:13:43.503Z,1.33
2018-01-05T15:16:11.841Z,1.07
2018-01-05T15:18:40.160Z,1.47
2018-01-05T15:21:08.464Z,1.57
2018-01-05T15:23:36.797Z,2.20
2018-01-05T15:26:05.108Z,2.10
2018-01-05T15:28:33.428Z,1.40
2018-01-05T15:31:01.757Z,2.00
2018-01-05T15:33:30.095Z,1.70
2018-01-05T15:35:58.447Z,1.27
2018-01-05T15:38:26.764Z,2.07
2018-01-05T15:40:55.081Z,1.50
2018-01-05T15:43:23.388Z,1.77
2018-01-05T15:45:51.718Z,1.57
2018-01-05T15:48:20.267Z,1.87
2018-01-05T15:50:48.580Z,1.90
2018-01-05T15:53:16.902Z,1.50
2018-01-05T15:55:45.208Z,1.00
2018-01-05T15:58:13.540Z,1.53
2018-01-05T16:00:41.864Z,1.13
2018-01-05T16:03:10.194Z,1.73
2018-01-05T16:05:38.507Z,1.33
2018-01-05T16:08:06.836Z,1.27
2018-01-05T16:10:35.147Z,1.60
2018-01-05T16:13:03.486Z,1.93
2018-01-05T16:15:31.834Z,2.40
2018-01-05T16:18:00.169Z,2.10
2018-01-05T16:20:28.529Z,2.00
2018-01-05T16:22:56.873Z,2.53
2018-01-05T16:25:25.182Z,3.50
2018-01-05T16:27:53.509Z,3.13
2018-01-05T16:30:21.812Z,2.93
2018-01-05T16:32:50.212Z,3.70
2018-01-05T16:35:18.516Z,3.50
2018-01-05T16:37:46.847Z,2.83
2018-01-05T16:40:15.212Z,3.63
2018-01-05T16:42:43.540Z,3.03
2018-01-05T16:45:11.857Z,2.40
2018-01-05T16:47:40.208Z,2.80
2018-01-05T16:50:08.667Z,2.23
2018-01-05T16:52:37.053Z,2.00
2018-01-05T16:55:05.420Z,1.83
2018-01-05T16:57:33.862Z,2.43
2018-01-05T17:00:05.853Z,1.70
2018-01-05T17:02:34.217Z,2.20
2018-01-05T17:05:06.003Z,1.80
2018-01-05T17:07:34.704Z,2.27
2018-01-05T17:10:03.073Z,2.23
2018-01-05T17:12:31.466Z,1.90
2018-01-05T17:15:00.551Z,1.87
2018-01-05T17:17:29.328Z,1.60
2018-01-05T17:19:57.654Z,1.77
2018-01-05T17:22:26.718Z,1.60
2018-01-05T17:24:55.052Z,1.80
2018-01-05T17:29:58.324Z,1.77
2018-01-05T17:32:26.634Z,2.67
2018-01-05T17:34:54.965Z,1.70
2018-01-05T17:37:23.553Z,2.50
2018-01-05T17:47:32.091Z,3.07
2018-01-05T17:50:00.471Z,2.23
2018-01-05T17:52:31.190Z,2.40
2018-01-05T17:54:59.542Z,2.23
2018-01-05T17:57:29.268Z,2.00
2018-01-05T17:59:58.467Z,2.30
2018-01-05T18:02:26.792Z,2.43
2018-01-05T18:04:55.576Z,1.87
2018-01-05T18:07:23.912Z,1.60
2018-01-05T18:12:27.491Z,2.53
2018-01-05T18:14:55.825Z,2.50
2018-01-05T18:17:24.128Z,3.27
2018-01-05T18:19:52.451Z,2.20
2018-01-05T18:22:20.783Z,2.27
2018-01-05T18:24:49.231Z,2.27
2018-01-05T18:27:18.000Z,3.87
2018-01-05T18:29:46.369Z,4.50
2018-01-05T18:32:14.768Z,6.20
2018-01-05T18:34:43.218Z,4.10
2018-01-05T18:37:11.931Z,3.43
2018-01-05T18:39:40.780Z,3.97
2018-01-05T18:42:09.086Z,3.87
2018-01-05T18:44:37.404Z,3.73
2018-01-05T18:47:05.808Z,4.30
2018-01-05T18:49:34.116Z,4.47
2018-01-05T18:52:02.507Z,4.67
2018-01-05T18:54:30.829Z,5.03
2018-01-05T18:56:59.184Z,3.63
2018-01-05T18:59:27.874Z,3.00
2018-01-05T19:01:56.300Z,3.13
2018-01-05T19:04:24.628Z,3.17
2018-01-05T19:06:53.334Z,2.87
2018-01-05T19:09:27.365Z,2.80
2018-01-05T19:11:57.690Z,2.87
2018-01-05T19:14:35.336Z,3.00
2018-01-05T19:17:05.335Z,3.03
2018-01-05T19:19:33.740Z,3.17
2018-01-05T19:22:02.208Z,3.30
2018-01-05T19:24:30.536Z,3.60
2018-01-05T19:26:58.935Z,3.80
2018-01-05T19:29:27.258Z,3.27
2018-01-05T19:31:57.621Z,3.83
2018-01-05T19:34:34.487Z,2.80
2018-01-05T19:37:02.872Z,3.17
2018-01-05T19:39:31.211Z,3.10
2018-01-05T19:41:59.516Z,2.73
2018-01-05T19:44:27.847Z,2.87
2018-01-05T19:46:56.179Z,2.93
2018-01-05T19:49:24.664Z,3.50
2018-01-05T19:51:53.000Z,2.87
2018-01-05T19:54:21.408Z,2.47
2018-01-05T19:56:49.728Z,2.50
2018-01-05T19:59:18.160Z,3.53
2018-01-05T20:01:46.508Z,3.23
2018-01-05T20:04:14.864Z,3.30
2018-01-05T20:06:43.163Z,2.40
2018-01-05T20:09:11.467Z,2.53
2018-01-05T20:11:39.828Z,2.33
2018-01-05T20:14:08.132Z,2.90
2018-01-05T20:16:36.439Z,2.83
2018-01-05T20:19:04.754Z,3.13
2018-01-05T20:21:33.048Z,3.40
2018-01-05T20:24:02.197Z,3.50
2018-01-05T20:26:30.760Z,2.70
2018-01-05T20:28:59.891Z,2.90
2018-01-05T20:31:28.207Z,2.47
2018-01-05T20:33:56.530Z,2.53
2018-01-05T20:36:24.864Z,2.23
2018-01-05T20:38:53.412Z,2.53
2018-01-05T20:41:21.757Z,2.37
2018-01-05T20:44:00.872Z,2.00
2018-01-05T20:46:32.853Z,2.60
2018-01-05T20:49:03.132Z,2.13
2018-01-05T20:51:31.705Z,2.33
2018-01-05T20:54:01.070Z,2.73
2018-01-05T20:56:29.791Z,2.50
2018-01-05T20:58:58.104Z,2.53
2018-01-05T21:01:26.428Z,2.40
2018-01-05T21:03:54.854Z,2.70
2018-01-05T21:06:23.254Z,1.80
2018-01-05T21:08:52.480Z,2.23
2018-01-05T21:11:20.856Z,2.73
2018-01-05T21:13:49.437Z,2.40
2018-01-05T21:16:17.809Z,1.80
2018-01-05T21:18:46.134Z,1.97
2018-01-05T21:21:16.476Z,3.13
2018-01-05T21:23:44.807Z,2.10
2018-01-05T21:26:13.123Z,1.70
2018-01-05T21:28:41.444Z,1.97
2018-01-05T21:31:09.759Z,2.00
2018-01-05T21:33:38.056Z,3.43
2018-01-05T21:36:06.461Z,2.10
2018-01-05T21:38:34.762Z,2.90
2018-01-05T21:41:03.628Z,2.20
2018-01-05T21:43:31.984Z,1.60
2018-01-05T21:46:00.304Z,2.63
2018-01-05T21:48:28.663Z,2.40
2018-01-05T21:50:56.952Z,2.27
2018-01-05T21:53:25.260Z,1.57
2018-01-05T21:55:53.553Z,1.70
2018-01-05T21:58:21.871Z,1.70
2018-01-05T22:00:50.182Z,2.63
2018-01-05T22:03:18.483Z,2.57
2018-01-05T22:05:46.793Z,2.40
2018-01-05T22:08:15.177Z,2.70
2018-01-05T22:10:43.485Z,2.50
2018-01-05T22:13:11.796Z,2.13
2018-01-05T22:15:40.092Z,2.70
2018-01-05T22:18:08.469Z,2.53
2018-01-05T22:20:36.716Z,2.80
2018-01-05T22:23:05.030Z,3.00
2018-01-05T22:25:33.341Z,2.30
2018-01-05T22:28:01.650Z,2.40
2018-01-05T22:30:29.968Z,2.47
2018-01-05T22:32:58.267Z,2.17
2018-01-05T22:35:26.583Z,2.00
2018-01-05T22:37:54.958Z,2.60
2018-01-05T22:40:23.269Z,1.67
2018-01-05T22:42:51.584Z,2.20
2018-01-05T22:45:19.905Z,1.87
2018-01-05T22:47:48.280Z,2.63
2018-01-05T22:50:16.541Z,1.67
2018-01-05T22:52:44.862Z,2.53
2018-01-05T22:55:13.176Z,2.50
2018-01-05T22:57:41.471Z,2.30
2018-01-05T23:00:09.806Z,1.70
2018-01-05T23:02:38.132Z,2.20
2018-01-05T23:05:06.441Z,2.47
2018-01-05T23:07:34.756Z,1.93
2018-01-05T23:10:03.081Z,2.13
2018-01-05T23:12:31.406Z,2.30
2018-01-05T23:14:59.883Z,1.90
2018-01-05T23:17:28.180Z,1.90
2018-01-05T23:19:56.491Z,2.40
2018-01-05T23:22:24.817Z,2.60
2018-01-05T23:24:53.144Z,2.53
2018-01-05T23:27:21.479Z,2.17
2018-01-05T23:29:49.919Z,2.70
2018-01-05T23:32:18.203Z,2.43
2018-01-05T23:34:46.521Z,2.70
2018-01-05T23:37:14.850Z,2.27
2018-01-05T23:39:43.208Z,2.43
2018-01-05T23:42:11.505Z,2.10
2018-01-05T23:44:39.906Z,1.97
2018-01-05T23:47:08.220Z,2.40
2018-01-05T23:49:36.583Z,1.80
2018-01-05T23:52:04.881Z,2.57
2018-01-05T23:54:33.941Z,2.10
2018-01-05T23:57:02.287Z,2.83
2018-01-05T23:59:30.573Z,2.33
